Time;durP1;ratioP1;P1;durP2;ratioP2;P2;SDS_P1;SDS_P2;PMS_P1;PMS_P2;Temp;Humidity;BMP_temperature;BMP_pressure;BME280_temperature;BME280_humidity;BME280_pressure;Samples;Min_cycle;Max_cycle;Signal;HPM_P1;HPM_P2
2020/12/28 00:00:30;;;;;;;13.57;8.05;;;;;;;-2.02;100.00;93399.25;4965010;28;20566;-49
2020/12/28 00:03:00;;;;;;;13.48;8.15;;;;;;;-2.14;100.00;93414.13;5007999;28;20046;-48
2020/12/28 00:05:28;;;;;;;12.80;6.65;;;;;;;-2.19;100.00;93416.31;4992427;28;20044;-52
2020/12/28 00:07:55;;;;;;;11.88;7.68;;;;;;;-2.02;100.00;93407.00;5003848;28;20054;-52
2020/12/28 00:10:22;;;;;;;15.13;8.05;;;;;;;-2.12;100.00;93412.22;4974862;28;20042;-54
2020/12/28 00:12:49;;;;;;;13.40;8.02;;;;;;;-2.12;100.00;93412.22;5008202;28;20045;-53
2020/12/28 00:15:19;;;;;;;13.88;7.90;;;;;;;-2.08;100.00;93407.56;4990870;28;20045;-55
2020/12/28 00:17:47;;;;;;;14.48;7.93;;;;;;;-2.06;100.00;93408.25;5012327;28;20069;-49
2020/12/28 00:20:16;;;;;;;15.45;7.72;;;;;;;-2.04;100.00;93407.13;4974328;28;20034;-52
2020/12/28 00:22:44;;;;;;;13.65;8.43;;;;;;;-1.98;100.00;93398.81;5017494;28;20037;-50
2020/12/28 00:25:11;;;;;;;12.60;8.07;;;;;;;-1.87;100.00;93395.22;4979932;28;20056;-57
2020/12/28 00:27:39;;;;;;;16.25;8.55;;;;;;;-1.93;100.00;93400.97;5010292;28;20108;-46
2020/12/28 00:30:07;;;;;;;12.95;7.95;;;;;;;-1.94;100.00;93386.44;4972552;28;20083;-50
2020/12/28 00:32:35;;;;;;;15.20;8.25;;;;;;;-1.92;100.00;93381.94;5005159;28;20054;-45
2020/12/28 00:35:04;;;;;;;17.30;9.10;;;;;;;-1.86;100.00;93371.03;4965826;28;20100;-49
2020/12/28 00:37:32;;;;;;;15.97;7.90;;;;;;;-1.83;100.00;93368.16;4990674;28;20042;-46
2020/12/28 00:40:00;;;;;;;14.98;7.38;;;;;;;-1.95;100.00;93354.66;4986848;28;20111;-59
2020/12/28 00:42:34;;;;;;;16.40;8.20;;;;;;;-1.97;100.00;93348.81;5011829;28;20052;-51
2020/12/28 00:45:01;;;;;;;14.02;8.15;;;;;;;-1.89;100.00;93345.53;5001674;28;20461;-55
2020/12/28 00:47:29;;;;;;;14.75;8.23;;;;;;;-1.76;100.00;93343.34;4991381;28;20528;-47
2020/12/28 00:49:56;;;;;;;12.95;8.43;;;;;;;-1.74;100.00;93333.72;5014474;28;20065;-50
2020/12/28 00:52:24;;;;;;;14.27;7.85;;;;;;;-1.83;100.00;93337.16;4973432;28;20037;-46
2020/12/28 00:54:51;;;;;;;14.48;8.35;;;;;;;-1.69;100.00;93328.94;5013894;28;20128;-50
2020/12/28 00:57:18;;;;;;;12.52;7.75;;;;;;;-1.75;100.00;93324.34;4980950;28;20568;-51
2020/12/28 00:59:46;;;;;;;12.82;7.97;;;;;;;-1.59;100.00;93312.53;5026823;28;20037;-50
2020/12/28 01:02:18;;;;;;;13.80;7.95;;;;;;;-1.61;100.00;93323.00;4969305;28;20040;-46
2020/12/28 01:04:54;;;;;;;15.63;8.82;;;;;;;-1.78;100.00;93324.63;5021899;28;20038;-48
2020/12/28 01:07:25;;;;;;;15.25;8.40;;;;;;;-1.90;100.00;93333.53;4987854;28;20053;-47
2020/12/28 01:09:55;;;;;;;14.55;8.35;;;;;;;-1.90;100.00;93328.38;5013304;28;20077;-47
2020/12/28 01:12:23;;;;;;;18.23;9.65;;;;;;;-1.91;100.00;93326.75;4993973;28;20042;-48
2020/12/28 01:14:56;;;;;;;15.93;8.52;;;;;;;-1.84;100.00;93338.13;5029053;28;20551;-46
2020/12/28 01:17:31;;;;;;;14.50;8.95;;;;;;;-1.94;100.00;93338.19;4958423;28;20122;-49
2020/12/28 01:20:12;;;;;;;16.08;9.00;;;;;;;-1.80;100.00;93351.56;5001246;28;20049;-50
2020/12/28 01:22:42;;;;;;;14.90;9.48;;;;;;;-1.90;100.00;93349.03;4972481;28;20038;-46
2020/12/28 01:25:09;;;;;;;15.10;8.43;;;;;;;-1.82;100.00;93343.16;5011818;28;20041;-51
2020/12/28 01:27:51;;;;;;;17.05;9.52;;;;;;;-1.82;100.00;93332.84;4991293;28;20069;-46
2020/12/28 01:30:19;;;;;;;15.20;8.45;;;;;;;-1.74;100.00;93327.72;5009810;28;20111;-49
2020/12/28 01:32:47;;;;;;;14.32;8.57;;;;;;;-1.61;100.00;93325.59;4959910;28;20536;-49
2020/12/28 01:35:37;;;;;;;;;;;;;;;-1.85;100.00;93321.03;4997938;28;20397;-46
2020/12/28 01:38:07;;;;;;;15.40;7.85;;;;;;;-1.74;100.00;93344.03;4992195;28;19932;-48
2020/12/28 01:40:35;;;;;;;14.13;8.93;;;;;;;-1.91;100.00;93337.09;5012441;28;20450;-53
2020/12/28 01:43:24;;;;;;;15.80;8.40;;;;;;;-1.87;100.00;93346.16;4992137;28;20045;-46
2020/12/28 01:45:51;;;;;;;16.90;8.68;;;;;;;-1.86;100.00;93349.56;5007561;28;20080;-50
2020/12/28 01:48:24;;;;;;;14.73;8.80;;;;;;;-1.84;100.00;93335.53;4969004;28;20085;-49
2020/12/28 01:50:52;;;;;;;17.63;9.25;;;;;;;-1.85;100.00;93320.22;5033635;28;20037;-46
2020/12/28 01:53:21;;;;;;;14.68;8.85;;;;;;;-1.88;100.00;93334.22;4967259;28;20042;-50
2020/12/28 01:55:56;;;;;;;14.98;8.90;;;;;;;-1.96;100.00;93327.22;5006552;28;20046;-49
2020/12/28 01:58:23;;;;;;;14.07;9.00;;;;;;;-1.92;100.00;93336.28;4986836;28;20132;-48
2020/12/28 02:00:52;;;;;;;14.73;8.77;;;;;;;-2.03;100.00;93326.19;5015845;28;20045;-49
2020/12/28 02:03:22;;;;;;;;;;;;;;;-2.00;100.00;93322.47;4969931;28;20037;-47
2020/12/28 02:06:05;;;;;;;14.75;8.88;;;;;;;-1.95;100.00;93317.69;5018190;28;19929;-46
2020/12/28 02:08:33;;;;;;;15.80;8.88;;;;;;;-2.03;100.00;93308.13;4969596;28;20499;-46
2020/12/28 02:11:01;;;;;;;13.75;7.63;;;;;;;-1.95;100.00;93322.84;5021224;28;20041;-47
2020/12/28 02:13:30;;;;;;;16.60;8.93;;;;;;;-1.81;100.00;93319.75;5015847;28;20050;-52
2020/12/28 02:16:17;;;;;;;19.38;8.85;;;;;;;-1.72;100.00;93318.88;5024808;28;20050;-50
2020/12/28 02:18:55;;;;;;;14.55;8.77;;;;;;;-1.74;100.00;93291.56;4976026;28;20063;-45
2020/12/28 02:21:28;;;;;;;16.80;9.07;;;;;;;-1.86;100.00;93287.59;5023146;28;20053;-51
2020/12/28 02:23:58;;;;;;;15.75;8.98;;;;;;;-1.94;100.00;93289.13;5023490;28;20042;-49
2020/12/28 02:26:25;;;;;;;17.00;8.95;;;;;;;-1.84;100.00;93277.94;5000440;28;20041;-47
2020/12/28 02:28:52;;;;;;;14.07;8.75;;;;;;;-1.87;100.00;93266.13;5037989;28;20045;-46
2020/12/28 02:31:20;;;;;;;15.90;7.97;;;;;;;-1.97;100.00;93273.13;4998896;28;20041;-46
2020/12/28 02:34:00;;;;;;;14.73;8.55;;;;;;;-1.97;100.00;93283.47;5021460;28;20426;-46
2020/12/28 02:36:33;;;;;;;14.73;8.15;;;;;;;-1.97;100.00;93299.75;4982528;28;21061;-50
2020/12/28 02:39:03;;;;;;;17.33;8.80;;;;;;;-1.95;100.00;93302.22;5007912;28;20124;-51
2020/12/28 02:41:31;;;;;;;15.90;8.93;;;;;;;-2.00;100.00;93302.63;4979335;28;20042;-51
2020/12/28 02:44:17;;;;;;;13.50;8.60;;;;;;;-1.92;100.00;93289.81;5005313;28;20448;-46
2020/12/28 02:47:03;;;;;;;14.20;9.05;;;;;;;-1.87;100.00;93276.44;4981566;28;20052;-46
2020/12/28 02:49:48;;;;;;;14.40;8.55;;;;;;;-1.76;100.00;93272.81;5002669;28;20523;-49
2020/12/28 02:52:35;;;;;;;13.35;8.80;;;;;;;-2.05;100.00;93266.13;5009590;28;20562;-55
2020/12/28 02:55:21;;;;;;;13.88;8.35;;;;;;;-2.21;100.00;93253.88;4984287;28;20661;-45
2020/12/28 02:58:07;;;;;;;14.93;8.75;;;;;;;-2.31;100.00;93247.16;5018672;28;20107;-49
2020/12/28 03:00:52;;;;;;;14.70;8.70;;;;;;;-2.42;100.00;93258.50;4987310;28;20053;-46
2020/12/28 03:03:38;;;;;;;16.40;8.98;;;;;;;-2.46;100.00;93257.97;5023177;28;20147;-48
2020/12/28 03:06:37;;;;;;;12.77;7.97;;;;;;;-2.43;100.00;93244.81;4978052;28;20057;-45
2020/12/28 03:09:23;;;;;;;15.85;8.70;;;;;;;-2.33;100.00;93234.44;5027394;28;20041;-46
2020/12/28 03:12:09;;;;;;;17.02;8.75;;;;;;;-2.29;100.00;93238.31;4995886;28;20526;-46
2020/12/28 03:15:11;;;;;;;16.52;9.73;;;;;;;-2.15;100.00;93237.81;4977892;28;20039;-54
2020/12/28 03:17:57;;;;;;;16.77;10.35;;;;;;;-2.05;100.00;93239.50;4958280;28;20196;-48
2020/12/28 03:20:42;;;;;;;14.63;9.18;;;;;;;-1.99;100.00;93238.94;5022484;28;20065;-53
2020/12/28 03:23:35;;;;;;;13.00;8.88;;;;;;;-1.93;100.00;93238.31;4971607;28;20152;-46
2020/12/28 03:26:21;;;;;;;15.90;9.35;;;;;;;-1.92;100.00;93227.84;5014115;28;20053;-53
2020/12/28 03:29:28;;;;;;;14.20;9.10;;;;;;;-1.89;100.00;93238.81;5004162;28;20057;-50
2020/12/28 03:32:18;;;;;;;15.00;8.70;;;;;;;-1.95;100.00;93243.63;4964150;28;20045;-45
2020/12/28 03:35:04;;;;;;;19.63;9.43;;;;;;;-1.97;100.00;93237.00;5006413;28;20045;-46
2020/12/28 03:37:49;;;;;;;15.90;9.52;;;;;;;-1.96;100.00;93238.63;4964802;28;20042;-51
2020/12/28 03:40:34;;;;;;;16.40;9.48;;;;;;;-1.81;100.00;93239.72;5004354;28;20053;-48
2020/12/28 03:43:20;;;;;;;16.85;9.40;;;;;;;-1.81;100.00;93216.47;4962605;28;20057;-46
2020/12/28 03:46:07;;;;;;;17.45;9.40;;;;;;;-1.83;100.00;93207.25;4999285;28;20061;-50
2020/12/28 03:48:52;;;;;;;15.90;9.70;;;;;;;-1.92;100.00;93212.38;4974922;28;20053;-46
2020/12/28 03:51:54;;;;;;;16.75;10.05;;;;;;;-1.87;100.00;93204.16;4985686;28;20053;-47
2020/12/28 03:54:40;;;;;;;17.52;10.40;;;;;;;-1.89;100.00;93188.03;4979452;28;20052;-54
2020/12/28 03:57:50;;;;;;;16.10;9.95;;;;;;;-1.85;100.00;93191.13;5022207;28;20049;-48
2020/12/28 04:00:36;;;;;;;16.65;10.27;;;;;;;-1.94;100.00;93200.56;5022348;28;20516;-46
2020/12/28 04:03:22;;;;;;;18.23;10.13;;;;;;;-1.89;100.00;93221.59;4972982;28;20523;-45
2020/12/28 04:06:12;;;;;;;15.68;9.60;;;;;;;-1.79;100.00;93224.91;4997227;28;20061;-47
2020/12/28 04:09:14;;;;;;;15.35;9.10;;;;;;;-1.70;100.00;93216.22;4939946;28;20089;-48
2020/12/28 04:12:00;;;;;;;16.33;9.95;;;;;;;-1.70;100.00;93207.66;5026505;28;20072;-50
2020/12/28 04:14:31;;;;;;;16.92;10.07;;;;;;;-1.73;100.00;93203.59;4988664;28;20042;-50
2020/12/28 04:16:58;;;;;;;17.15;10.07;;;;;;;-1.70;100.00;93205.91;5023066;28;20045;-47
2020/12/28 04:19:26;;;;;;;17.17;10.45;;;;;;;-1.50;100.00;93209.09;4988270;28;20136;-57
2020/12/28 04:21:53;;;;;;;20.90;11.77;;;;;;;-1.46;100.00;93200.06;5023767;28;20061;-48
2020/12/28 04:24:20;;;;;;;18.70;9.57;;;;;;;-1.60;100.00;93197.25;4983134;28;20519;-50
2020/12/28 04:26:48;;;;;;;15.77;10.05;;;;;;;-1.37;100.00;93193.19;5010854;28;20521;-45
2020/12/28 04:29:17;;;;;;;15.77;9.73;;;;;;;-1.21;100.00;93197.63;4989387;28;20046;-51
2020/12/28 04:31:44;;;;;;;18.75;10.50;;;;;;;-1.30;100.00;93181.28;5014649;28;20057;-49
2020/12/28 04:34:11;;;;;;;16.25;10.52;;;;;;;-1.64;100.00;93177.84;4976392;28;21409;-51
2020/12/28 04:36:39;;;;;;;17.02;11.00;;;;;;;-1.74;100.00;93162.44;5005535;28;20041;-47
2020/12/28 04:39:05;;;;;;;18.63;9.18;;;;;;;-1.77;100.00;93150.66;5025654;28;20037;-47
2020/12/28 04:41:33;;;;;;;16.17;9.05;;;;;;;-1.72;100.00;93152.75;5022897;28;20127;-51
2020/12/28 04:44:01;;;;;;;17.15;10.18;;;;;;;-1.67;100.00;93166.06;5015383;28;20042;-46
2020/12/28 04:46:29;;;;;;;17.17;10.55;;;;;;;-1.60;100.00;93159.31;4975550;28;20077;-45
2020/12/28 04:48:56;;;;;;;16.77;11.95;;;;;;;-1.74;100.00;93152.94;5020925;28;20115;-46
2020/12/28 04:51:23;;;;;;;14.57;8.75;;;;;;;-1.69;100.00;93149.88;4963172;28;20655;-44
2020/12/28 04:53:52;;;;;;;18.63;9.55;;;;;;;-1.59;100.00;93150.59;5011181;28;20042;-45
2020/12/28 04:56:21;;;;;;;15.05;9.35;;;;;;;-1.51;100.00;93162.75;4989475;28;20041;-47
2020/12/28 04:58:48;;;;;;;16.88;9.77;;;;;;;-1.38;100.00;93159.75;5012469;28;20045;-52
2020/12/28 05:01:16;;;;;;;18.20;10.25;;;;;;;-1.33;100.00;93166.06;4979886;28;20419;-51
2020/12/28 05:03:43;;;;;;;16.10;9.55;;;;;;;-1.35;100.00;93165.41;5008249;28;20043;-52
2020/12/28 05:06:11;;;;;;;17.85;9.23;;;;;;;-1.37;100.00;93151.84;4994963;28;20596;-47
2020/12/28 05:08:43;;;;;;;17.65;9.13;;;;;;;-1.41;100.00;93170.38;5007820;28;20046;-48
2020/12/28 05:11:14;;;;;;;18.73;9.20;;;;;;;-1.38;100.00;93170.06;4970475;28;20492;-49
2020/12/28 05:13:46;;;;;;;16.63;9.73;;;;;;;-1.25;100.00;93163.53;5027348;28;20048;-49
2020/12/28 05:16:14;;;;;;;16.92;9.30;;;;;;;-1.09;100.00;93154.22;4974875;28;20100;-48
2020/12/28 05:18:41;;;;;;;16.17;9.15;;;;;;;-1.07;100.00;93168.59;5008680;28;20234;-50
2020/12/28 05:21:08;;;;;;;16.75;9.60;;;;;;;-1.07;100.00;93168.59;4994724;28;20049;-51
2020/12/28 05:23:35;;;;;;;16.40;9.73;;;;;;;-0.91;100.00;93162.69;5031936;28;20044;-45
2020/12/28 05:26:05;;;;;;;16.70;9.40;;;;;;;-0.74;100.00;93146.25;5002484;28;20169;-60
2020/12/28 05:28:34;;;;;;;16.02;9.60;;;;;;;-0.83;100.00;93152.34;5001337;28;20045;-49
2020/12/28 05:31:02;;;;;;;17.17;9.48;;;;;;;-1.15;100.00;93142.72;5019503;28;20053;-51
2020/12/28 05:33:32;;;;;;;14.85;8.93;;;;;;;-1.20;100.00;93156.13;4972917;28;20050;-46
2020/12/28 05:35:59;;;;;;;10.27;6.27;;;;;;;-1.44;100.00;93146.50;5001616;28;20467;-47
2020/12/28 05:38:27;;;;;;;17.73;10.55;;;;;;;-1.30;100.00;93116.66;4978646;28;20329;-54
2020/12/28 05:41:02;;;;;;;27.90;16.55;;;;;;;-1.28;100.00;93109.56;5012279;28;20124;-51
2020/12/28 05:43:29;;;;;;;19.05;10.65;;;;;;;-1.26;100.00;93112.81;4977780;28;20124;-46
2020/12/28 05:45:57;;;;;;;15.00;9.15;;;;;;;-1.13;100.00;93114.97;5037466;28;20444;-53
2020/12/28 05:48:25;;;;;;;18.10;9.10;;;;;;;-1.13;100.00;93096.06;4975323;28;20116;-47
2020/12/28 05:50:55;;;;;;;16.30;11.20;;;;;;;-1.24;100.00;93074.69;5017123;28;20124;-55
2020/12/28 05:53:26;;;;;;;17.10;10.18;;;;;;;-1.27;100.00;93076.78;4997417;28;20388;-48
2020/12/28 05:55:54;;;;;;;14.52;9.02;;;;;;;-1.09;100.00;93090.41;5015938;28;20046;-48
2020/12/28 05:58:22;;;;;;;17.35;10.43;;;;;;;-1.05;100.00;93130.50;4974124;28;20112;-52
2020/12/28 06:00:50;;;;;;;16.92;9.95;;;;;;;-1.10;100.00;93178.44;5016616;28;20405;-51
2020/12/28 06:03:23;;;;;;;11.13;5.93;;;;;;;-1.15;100.00;93178.09;4978705;28;20054;-47
2020/12/28 06:05:55;;;;;;;12.18;6.63;;;;;;;-1.04;100.00;93164.91;5027433;28;20424;-55
2020/12/28 06:08:23;;;;;;;12.55;8.60;;;;;;;-0.97;100.00;93119.34;4995554;28;20041;-49
2020/12/28 06:10:50;;;;;;;13.32;8.02;;;;;;;-0.78;98.62;93142.38;5043465;28;20053;-54
2020/12/28 06:13:21;;;;;;;8.43;4.38;;;;;;;-0.97;100.00;93171.88;4989340;28;23220;-47
2020/12/28 06:15:58;;;;;;;9.75;5.15;;;;;;;-1.12;100.00;93196.69;5020382;28;20045;-51
2020/12/28 06:18:26;;;;;;;8.73;5.18;;;;;;;-1.15;100.00;93222.06;4989725;28;20132;-52
2020/12/28 06:20:54;;;;;;;6.47;3.67;;;;;;;-1.18;100.00;93223.16;5028118;28;20128;-50
2020/12/28 06:23:37;;;;;;;11.65;6.22;;;;;;;-1.12;100.00;93214.00;5011572;28;20060;-46
2020/12/28 06:26:05;;;;;;;13.15;7.75;;;;;;;-0.94;100.00;93209.53;5032410;28;20041;-51
2020/12/28 06:28:33;;;;;;;8.90;5.07;;;;;;;-0.89;100.00;93229.78;4998422;28;20042;-57
2020/12/28 06:31:07;;;;;;;14.57;7.30;;;;;;;-0.97;100.00;93233.13;5017604;28;20049;-53
2020/12/28 06:33:35;;;;;;;14.13;7.85;;;;;;;-0.92;100.00;93228.31;5009687;28;20058;-51
2020/12/28 06:36:13;;;;;;;12.07;7.35;;;;;;;-0.92;100.00;93223.13;4966009;28;20073;-44
2020/12/28 06:38:40;;;;;;;14.32;8.45;;;;;;;-0.80;100.00;93203.78;5008780;28;20066;-48
2020/12/28 06:41:08;;;;;;;13.82;7.28;;;;;;;-0.68;98.22;93198.34;4971660;28;20098;-53
2020/12/28 06:43:39;;;;;;;13.35;7.97;;;;;;;-0.61;98.13;93186.38;5015862;28;20043;-48
2020/12/28 06:46:06;;;;;;;13.57;6.78;;;;;;;-0.58;97.77;93165.38;4973945;28;20056;-49
2020/12/28 06:48:33;;;;;;;12.48;7.65;;;;;;;-0.58;97.21;93160.22;5028157;28;20057;-46
2020/12/28 06:51:07;;;;;;;11.35;7.50;;;;;;;-0.65;98.52;93135.94;4992028;28;20095;-53
2020/12/28 06:53:34;;;;;;;14.25;7.70;;;;;;;-0.72;99.96;93133.19;5008687;28;20041;-46
2020/12/28 06:56:07;;;;;;;11.70;7.22;;;;;;;-0.65;98.77;93138.53;4982228;28;20081;-48
2020/12/28 06:58:34;;;;;;;11.50;7.47;;;;;;;-0.63;97.75;93126.22;5024399;28;20708;-46
2020/12/28 07:01:03;;;;;;;12.25;7.95;;;;;;;-0.76;98.79;93122.34;4974975;28;20727;-45
2020/12/28 07:03:30;;;;;;;14.70;9.52;;;;;;;-0.78;98.71;93119.09;5013495;28;20046;-53
2020/12/28 07:05:59;;;;;;;13.05;8.00;;;;;;;-0.74;97.82;93117.00;4983246;28;20049;-45
2020/12/28 07:08:27;;;;;;;13.18;7.57;;;;;;;-0.75;96.28;93105.84;5028743;28;20057;-49
2020/12/28 07:10:59;;;;;;;15.90;8.82;;;;;;;-0.72;95.74;93099.53;4972833;28;20049;-47
2020/12/28 07:13:26;;;;;;;11.38;7.97;;;;;;;-0.65;95.71;93105.69;5007788;28;20543;-48
2020/12/28 07:16:00;;;;;;;13.73;8.32;;;;;;;-0.64;95.77;93096.97;4986912;28;20057;-47
2020/12/28 07:18:27;;;;;;;13.80;8.80;;;;;;;-0.58;95.56;93101.50;5021404;28;20050;-48
2020/12/28 07:20:58;;;;;;;14.52;8.27;;;;;;;-0.44;94.53;93094.88;5000103;28;20041;-49
2020/12/28 07:23:30;;;;;;;14.60;8.25;;;;;;;-0.42;93.59;93099.88;5034488;28;20063;-47
2020/12/28 07:26:08;;;;;;;14.90;8.45;;;;;;;-0.50;93.65;93085.97;4984561;28;20042;-45
2020/12/28 07:28:37;;;;;;;16.17;9.63;;;;;;;-0.65;93.79;93086.78;5032198;28;20556;-49
2020/12/28 07:31:05;;;;;;;12.48;7.93;;;;;;;-0.54;94.43;93091.63;4996938;28;20045;-51
2020/12/28 07:33:33;;;;;;;16.33;7.93;;;;;;;-0.52;94.11;93092.28;5021844;28;20156;-54
2020/12/28 07:36:03;;;;;;;13.57;7.75;;;;;;;-0.55;94.16;93095.19;5002700;28;20095;-45
2020/12/28 07:38:31;;;;;;;14.30;7.55;;;;;;;-0.46;94.55;93089.03;4999839;28;20456;-48
2020/12/28 07:40:58;;;;;;;14.35;8.23;;;;;;;-0.50;93.63;93085.97;5020516;28;20037;-45
2020/12/28 07:43:26;;;;;;;12.23;7.13;;;;;;;-0.50;94.55;93083.38;4997224;28;20045;-51
2020/12/28 07:45:53;;;;;;;9.45;4.55;;;;;;;-0.39;93.79;93078.88;5031473;28;20064;-49
2020/12/28 07:48:22;;;;;;;16.35;8.68;;;;;;;-0.45;93.59;93074.31;4985356;28;20045;-53
2020/12/28 07:50:53;;;;;;;15.43;8.38;;;;;;;-0.30;93.49;93070.94;5022558;28;20221;-47
2020/12/28 07:53:25;;;;;;;12.20;7.88;;;;;;;-0.34;93.38;93061.09;4968432;28;20045;-48
2020/12/28 07:55:58;;;;;;;13.35;8.48;;;;;;;-0.29;93.55;93057.00;4999583;28;20044;-46
2020/12/28 07:58:32;;;;;;;11.98;8.57;;;;;;;-0.28;93.90;93055.22;4971052;28;20042;-48
2020/12/28 08:01:08;;;;;;;13.52;7.85;;;;;;;-0.30;93.88;93041.66;5013193;28;20053;-48
2020/12/28 08:03:37;;;;;;;14.30;8.35;;;;;;;-0.11;92.66;93051.66;4976202;28;20463;-50
2020/12/28 08:06:06;;;;;;;16.73;8.90;;;;;;;0.03;91.67;93052.75;5022793;28;20190;-54
2020/12/28 08:08:34;;;;;;;19.83;10.45;;;;;;;0.12;91.44;93051.78;4995169;28;20115;-45
2020/12/28 08:11:03;;;;;;;20.70;9.68;;;;;;;0.03;90.83;93052.75;5034852;28;20534;-49
2020/12/28 08:13:31;;;;;;;14.13;8.57;;;;;;;0.17;89.95;93056.44;4993650;28;20515;-45
2020/12/28 08:16:08;;;;;;;15.63;9.40;;;;;;;0.36;88.42;93042.31;5028246;28;21259;-52
2020/12/28 08:18:45;;;;;;;19.15;9.27;;;;;;;0.30;88.92;93037.81;4986617;28;20511;-46
2020/12/28 08:21:12;;;;;;;15.85;9.25;;;;;;;0.11;90.13;93050.16;5006017;28;20046;-50
2020/12/28 08:23:39;;;;;;;16.58;10.43;;;;;;;0.09;90.52;93049.50;4973937;28;20038;-50
2020/12/28 08:26:18;;;;;;;14.00;8.57;;;;;;;0.06;90.61;93030.91;5007081;28;20154;-47
2020/12/28 08:28:49;;;;;;;13.07;8.68;;;;;;;0.09;90.63;93028.78;4982029;28;20046;-50
2020/12/28 08:31:16;;;;;;;13.43;7.82;;;;;;;0.05;90.96;93013.75;5026639;28;20060;-55
2020/12/28 08:33:43;;;;;;;14.85;7.60;;;;;;;-0.11;91.56;93010.22;4989754;28;20161;-46
2020/12/28 08:36:11;;;;;;;13.15;8.10;;;;;;;-0.09;92.34;93008.28;5002008;28;20050;-48
2020/12/28 08:38:37;;;;;;;13.13;8.05;;;;;;;-0.19;92.56;92997.31;4976467;28;20080;-47
2020/12/28 08:41:05;;;;;;;13.82;8.45;;;;;;;-0.14;93.21;92989.03;5017516;28;20049;-48
2020/12/28 08:43:32;;;;;;;12.80;8.13;;;;;;;-0.19;93.53;92993.91;5029808;28;20058;-48
2020/12/28 08:46:04;;;;;;;12.65;8.98;;;;;;;-0.09;93.57;93003.09;4984555;28;20448;-46
2020/12/28 08:48:31;;;;;;;13.43;8.60;;;;;;;0.06;92.96;93028.31;5024828;28;20057;-53
2020/12/28 08:50:58;;;;;;;14.45;8.95;;;;;;;0.15;92.82;93012.59;5005464;28;20586;-52
2020/12/28 08:53:25;;;;;;;16.23;9.27;;;;;;;0.03;92.52;93002.75;5011477;28;20455;-54
2020/12/28 08:55:58;;;;;;;13.65;8.60;;;;;;;0.04;92.68;92994.84;4998076;28;20400;-50
2020/12/28 08:58:28;;;;;;;19.60;8.13;;;;;;;0.18;91.92;93011.47;5016021;28;20409;-52
2020/12/28 09:00:56;;;;;;;14.55;9.32;;;;;;;0.41;90.19;93019.28;4964269;28;20049;-56
2020/12/28 09:03:23;;;;;;;19.92;7.97;;;;;;;0.62;88.75;93023.91;5014799;28;20152;-47
2020/12/28 09:05:50;;;;;;;12.38;7.25;;;;;;;0.58;89.06;93005.28;4972270;28;20045;-56
2020/12/28 09:08:18;;;;;;;28.08;8.30;;;;;;;0.44;88.77;93003.41;5028583;28;20068;-50
2020/12/28 09:10:44;;;;;;;45.92;9.27;;;;;;;0.32;90.24;93007.38;4980204;28;20041;-54
2020/12/28 09:13:11;;;;;;;17.50;8.48;;;;;;;0.37;91.15;93013.66;5019980;28;20042;-53
2020/12/28 09:15:38;;;;;;;27.15;15.63;;;;;;;0.45;89.07;93021.41;4970960;28;20044;-53
2020/12/28 09:18:06;;;;;;;14.20;8.10;;;;;;;0.53;89.98;93024.94;5011348;28;20040;-50
2020/12/28 09:20:33;;;;;;;27.83;9.73;;;;;;;0.41;89.38;93004.59;4977485;28;22758;-55
2020/12/28 09:23:00;;;;;;;31.02;8.63;;;;;;;0.12;92.60;92992.22;5009516;28;20042;-52
2020/12/28 09:25:27;;;;;;;44.58;8.93;;;;;;;0.15;93.08;93001.44;4996945;28;20056;-53
2020/12/28 09:27:55;;;;;;;22.77;9.10;;;;;;;0.29;91.81;92990.38;5036120;28;20061;-50
2020/12/28 09:30:23;;;;;;;16.13;8.30;;;;;;;0.47;90.24;93005.66;5012636;28;20049;-55
2020/12/28 09:32:50;;;;;;;12.80;7.88;;;;;;;0.67;89.70;93001.69;4978590;28;20042;-54
2020/12/28 09:35:18;;;;;;;16.70;7.72;;;;;;;0.75;89.42;92994.84;5018606;28;20459;-51
2020/12/28 09:37:45;;;;;;;15.15;7.88;;;;;;;0.75;88.95;92998.25;4973427;28;20041;-48
2020/12/28 09:40:12;;;;;;;15.00;7.53;;;;;;;0.80;90.27;93001.16;5036174;28;20049;-54
2020/12/28 09:42:39;;;;;;;13.93;7.93;;;;;;;0.86;89.12;92999.63;4999358;28;20049;-50
2020/12/28 09:47:50;;;;;;;15.40;7.70;;;;;;;1.00;89.54;92993.72;4979588;28;20120;-49
2020/12/28 09:50:18;;;;;;;15.05;9.43;;;;;;;0.95;89.44;92994.22;5005212;28;20046;-54
2020/12/28 09:52:45;;;;;;;18.33;8.85;;;;;;;0.71;89.02;92992.59;4975503;28;20072;-54
2020/12/28 09:55:12;;;;;;;12.82;7.90;;;;;;;0.56;89.16;92986.53;5008279;28;20401;-50
2020/12/28 09:57:40;;;;;;;13.15;7.60;;;;;;;0.55;90.41;92991.84;4973592;28;20569;-54
2020/12/28 10:00:09;;;;;;;18.20;9.32;;;;;;;0.66;90.09;92988.91;5026699;28;20155;-53
2020/12/28 10:02:40;;;;;;;16.63;8.38;;;;;;;0.68;90.74;92987.75;4997253;28;20043;-53
2020/12/28 10:05:07;;;;;;;14.57;8.82;;;;;;;0.86;89.50;92986.66;5018599;28;20050;-53
2020/12/28 10:07:37;;;;;;;15.52;9.27;;;;;;;0.92;88.71;92980.81;4977259;28;20046;-53
2020/12/28 10:10:04;;;;;;;17.60;7.72;;;;;;;1.06;88.23;92990.44;5015741;28;20049;-49
2020/12/28 10:12:31;;;;;;;12.18;7.25;;;;;;;1.18;87.44;92983.88;4976387;28;20046;-53
2020/12/28 10:14:59;;;;;;;14.18;8.60;;;;;;;0.95;88.21;92970.09;5029830;28;20052;-51
2020/12/28 10:17:25;;;;;;;12.88;7.63;;;;;;;0.88;89.09;92969.16;4995630;28;20042;-53
2020/12/28 10:19:53;;;;;;;18.08;10.10;;;;;;;0.96;89.20;92969.09;5011362;28;20041;-52
2020/12/28 10:22:21;;;;;;;17.45;9.43;;;;;;;1.12;89.34;92960.41;5008553;28;20073;-57
2020/12/28 10:24:52;;;;;;;13.63;8.60;;;;;;;0.94;88.87;92958.91;4985526;28;20087;-55
2020/12/28 10:27:19;;;;;;;16.33;8.40;;;;;;;0.99;88.88;92953.19;5006934;28;20080;-52
2020/12/28 10:29:46;;;;;;;17.23;10.25;;;;;;;1.00;88.61;92962.59;4971865;28;20056;-55
2020/12/28 10:32:13;;;;;;;14.98;8.45;;;;;;;1.17;88.50;92958.91;5033485;28;20045;-52
2020/12/28 10:34:40;;;;;;;14.00;8.73;;;;;;;1.22;88.91;92944.59;4995833;28;20053;-51
2020/12/28 10:37:07;;;;;;;12.35;7.35;;;;;;;1.32;87.41;92945.97;5029130;28;20519;-51
2020/12/28 10:39:34;;;;;;;12.85;7.60;;;;;;;1.34;88.08;92945.78;4996198;28;20049;-51
2020/12/28 10:42:05;;;;;;;15.10;7.97;;;;;;;1.36;87.88;92943.84;5039490;28;20037;-56
2020/12/28 10:44:32;;;;;;;15.32;7.50;;;;;;;1.17;87.93;92939.91;4993392;28;20119;-53
2020/12/28 10:46:59;;;;;;;16.30;10.55;;;;;;;1.17;88.99;92935.56;5012251;28;20050;-49
2020/12/28 10:49:27;;;;;;;13.85;7.35;;;;;;;1.31;88.27;92918.41;4978689;28;20132;-55
2020/12/28 10:51:55;;;;;;;11.90;7.05;;;;;;;1.43;87.49;92911.81;5026584;28;20052;-57
2020/12/28 10:54:22;;;;;;;11.75;7.07;;;;;;;1.35;87.06;92904.09;4971528;28;20528;-57
2020/12/28 10:56:49;;;;;;;10.80;6.68;;;;;;;1.37;88.72;92909.09;5023623;28;20408;-50
2020/12/28 10:59:17;;;;;;;18.23;8.95;;;;;;;1.37;88.08;92903.91;4979148;28;20034;-57
2020/12/28 11:01:44;;;;;;;14.45;9.32;;;;;;;1.26;88.90;92896.56;5008559;28;20034;-52
2020/12/28 11:04:11;;;;;;;12.10;7.18;;;;;;;1.36;88.25;92903.09;4998602;28;20164;-57
2020/12/28 11:06:41;;;;;;;11.57;6.75;;;;;;;1.35;89.63;92892.91;5000482;28;20042;-53
2020/12/28 11:09:07;;;;;;;11.45;7.05;;;;;;;1.48;89.99;92897.47;5019640;28;20128;-52
2020/12/28 11:11:34;;;;;;;11.63;6.50;;;;;;;1.48;88.56;92898.31;4993886;28;20065;-50
2020/12/28 11:14:01;;;;;;;12.05;6.82;;;;;;;1.37;89.24;92894.34;5036789;28;20418;-52
2020/12/28 11:16:29;;;;;;;12.48;7.20;;;;;;;1.36;89.10;92891.94;4986479;28;20050;-51
2020/12/28 11:18:56;;;;;;;11.80;6.63;;;;;;;1.28;90.62;92885.03;5013680;28;20080;-50
2020/12/28 11:21:23;;;;;;;9.30;6.20;;;;;;;1.19;91.57;92879.09;4997142;28;20056;-51
2020/12/28 11:24:01;;;;;;;10.65;6.97;;;;;;;1.28;89.74;92884.22;5034405;28;20084;-51
2020/12/28 11:26:29;;;;;;;12.60;7.28;;;;;;;1.28;88.83;92887.63;4988998;28;20068;-50
2020/12/28 11:28:56;;;;;;;12.85;6.68;;;;;;;1.26;89.93;92876.59;5040248;28;20098;-50
2020/12/28 11:31:24;;;;;;;10.77;6.68;;;;;;;1.24;89.51;92876.00;4992871;28;20065;-48
2020/12/28 11:33:52;;;;;;;12.57;7.78;;;;;;;1.37;90.16;92883.16;5030911;28;20054;-51
2020/12/28 11:36:19;;;;;;;11.88;7.75;;;;;;;1.41;89.76;92869.66;4976254;28;20103;-47
2020/12/28 11:38:47;;;;;;;12.63;8.15;;;;;;;1.46;87.86;92884.69;5032243;28;20047;-56
2020/12/28 11:41:14;;;;;;;12.55;7.85;;;;;;;1.58;87.62;92882.44;4995556;28;20096;-52
2020/12/28 11:43:42;;;;;;;11.15;6.82;;;;;;;1.55;87.84;92872.41;5028068;28;20069;-48